Time;durP1;ratioP1;P1;durP2;ratioP2;P2;SDS_P1;SDS_P2;PMS_P1;PMS_P2;Temp;Humidity;BMP_temperature;BMP_pressure;BME280_temperature;BME280_humidity;BME280_pressure;Samples;Min_cycle;Max_cycle;Signal;HPM_P1;HPM_P2
2022/05/05 00:01:21;;;;;;;7.83;2.33;;;;;;;12.73;65.54;100835.27;1831235;78;21022;-63
2022/05/05 00:03:48;;;;;;;5.60;2.40;;;;;;;12.58;64.47;100836.80;1831079;78;21526;-63
2022/05/05 00:06:17;;;;;;;7.45;2.50;;;;;;;12.70;63.13;100843.60;1830975;78;21046;-63
2022/05/05 00:08:44;;;;;;;7.67;2.60;;;;;;;12.78;62.43;100842.32;1833664;77;21070;-63
2022/05/05 00:16:43;;;;;;;4.55;2.35;;;;;;;12.54;61.22;100836.56;1844790;78;20994;-63
2022/05/05 00:19:10;;;;;;;7.58;2.27;;;;;;;12.56;61.82;100841.67;1845034;78;21069;-63
2022/05/05 00:21:38;;;;;;;5.53;2.50;;;;;;;12.49;61.26;100842.84;1844975;78;21516;-62
2022/05/05 00:24:07;;;;;;;6.05;2.40;;;;;;;12.45;61.44;100843.91;1844886;78;21022;-64
2022/05/05 00:26:36;;;;;;;7.50;2.33;;;;;;;12.38;61.26;100848.52;1845092;78;21455;-63
2022/05/05 00:29:03;;;;;;;5.08;2.30;;;;;;;12.42;61.61;100854.75;1845195;78;21423;-63
2022/05/05 00:31:30;;;;;;;4.17;2.00;;;;;;;12.30;61.52;100849.33;1844768;78;21010;-63
2022/05/05 00:33:57;;;;;;;5.08;2.60;;;;;;;12.27;60.99;100853.36;1845025;78;21010;-62
2022/05/05 00:36:25;;;;;;;4.58;2.20;;;;;;;12.28;60.40;100849.85;1839423;78;21027;-63
2022/05/05 00:38:52;;;;;;;5.42;2.10;;;;;;;12.27;60.39;100868.38;1844710;78;21021;-63
2022/05/05 00:41:19;;;;;;;6.08;2.70;;;;;;;12.55;59.33;100855.47;1845007;78;21357;-62
2022/05/05 00:43:46;;;;;;;6.12;2.45;;;;;;;12.42;59.71;100856.05;1844754;78;21045;-62
2022/05/05 00:46:14;;;;;;;4.87;2.02;;;;;;;12.13;59.58;100859.14;1845219;78;21482;-62
2022/05/05 00:48:44;;;;;;;4.62;2.20;;;;;;;12.02;59.70;100868.20;1844695;78;21037;-62
2022/05/05 00:51:12;;;;;;;7.25;2.25;;;;;;;12.13;59.64;100870.29;1844961;78;21057;-63
2022/05/05 00:53:39;;;;;;;4.50;2.40;;;;;;;12.04;59.34;100869.39;1844699;78;21002;-63
2022/05/05 00:56:11;;;;;;;6.12;2.40;;;;;;;12.02;59.38;100870.77;1844709;78;21061;-63
2022/05/05 00:58:39;;;;;;;6.33;2.20;;;;;;;11.94;59.79;100865.55;1845094;78;20990;-63
2022/05/05 01:01:06;;;;;;;3.90;2.30;;;;;;;11.91;59.39;100869.56;1844796;78;21018;-63
2022/05/05 01:03:36;;;;;;;8.48;2.55;;;;;;;11.86;59.67;100873.61;1845001;78;21065;-63
2022/05/05 01:06:08;;;;;;;7.20;2.40;;;;;;;11.78;59.68;100875.23;1844797;77;21525;-63
2022/05/05 01:08:37;;;;;;;3.67;2.30;;;;;;;11.74;59.98;100867.67;1844693;78;21053;-63
2022/05/05 01:11:04;;;;;;;6.95;2.65;;;;;;;11.70;59.92;100876.02;1845047;78;21010;-63
2022/05/05 01:13:32;;;;;;;7.05;2.40;;;;;;;11.68;60.17;100876.53;1844838;78;21026;-62
2022/05/05 01:16:00;;;;;;;8.00;2.35;;;;;;;11.76;59.99;100880.91;1845168;78;21033;-62
2022/05/05 01:18:27;;;;;;;6.45;2.33;;;;;;;11.68;60.24;100886.84;1844925;78;21038;-63
2022/05/05 01:20:55;;;;;;;4.05;2.37;;;;;;;11.56;59.89;100892.52;1845109;78;21474;-63
2022/05/05 01:23:23;;;;;;;4.60;2.30;;;;;;;11.63;59.91;100892.63;1845130;78;21490;-63
2022/05/05 01:28:45;;;;;;;5.95;2.50;;;;;;;11.59;60.81;100901.41;1845045;78;21018;-62
2022/05/05 01:31:13;;;;;;;4.40;2.35;;;;;;;11.54;60.96;100895.16;1844862;78;21030;-63
2022/05/05 01:33:40;;;;;;;4.22;2.40;;;;;;;11.53;60.94;100895.22;1844975;78;21085;-63
2022/05/05 01:36:08;;;;;;;8.73;2.42;;;;;;;11.54;60.91;100902.06;1845120;78;21081;-63
2022/05/05 01:38:36;;;;;;;5.10;2.37;;;;;;;11.48;61.25;100909.59;1845178;78;21015;-63
2022/05/05 01:41:10;;;;;;;7.28;2.50;;;;;;;11.79;60.80;100915.58;1844755;78;21049;-63
2022/05/05 01:43:42;;;;;;;6.37;2.42;;;;;;;11.40;61.06;100914.23;1844040;78;21490;-62
2022/05/05 01:46:10;;;;;;;5.08;2.40;;;;;;;11.39;61.57;100925.42;1844552;78;21076;-63
2022/05/05 01:48:37;;;;;;;5.53;2.65;;;;;;;11.36;61.69;100930.27;1845135;78;21052;-63
2022/05/05 01:51:05;;;;;;;5.28;2.62;;;;;;;11.33;61.99;100926.51;1845003;78;21466;-63
2022/05/05 01:53:36;;;;;;;6.22;2.30;;;;;;;11.18;62.29;100923.28;1844799;78;21006;-63
2022/05/05 01:56:10;;;;;;;5.45;2.37;;;;;;;11.06;62.42;100928.45;1812233;78;21504;-63
2022/05/05 01:58:41;;;;;;;6.47;2.80;;;;;;;11.18;62.81;100934.41;1845075;78;21010;-62
2022/05/05 02:01:09;;;;;;;8.43;2.87;;;;;;;11.03;63.05;100928.59;1845203;78;21037;-62
2022/05/05 02:03:38;;;;;;;8.43;2.33;;;;;;;11.05;63.25;100929.80;1845011;78;21057;-62
2022/05/05 02:06:07;;;;;;;7.65;2.80;;;;;;;11.05;63.21;100941.39;1844911;78;21557;-62
2022/05/05 02:08:36;;;;;;;4.97;2.52;;;;;;;11.11;63.04;100930.42;1845109;78;21029;-62
2022/05/05 02:11:05;;;;;;;6.40;2.47;;;;;;;11.10;63.72;100945.93;1844953;78;21470;-62
2022/05/05 02:13:32;;;;;;;6.85;2.85;;;;;;;10.93;63.81;100941.41;1845071;78;21462;-62
2022/05/05 02:16:00;;;;;;;7.87;3.08;;;;;;;10.99;63.82;100947.19;1844867;78;21025;-62
2022/05/05 02:18:28;;;;;;;6.08;2.90;;;;;;;10.94;63.83;100946.52;1844835;78;21482;-63
2022/05/05 02:20:55;;;;;;;5.65;2.70;;;;;;;11.07;63.66;100947.33;1845120;78;20986;-62
2022/05/05 02:23:23;;;;;;;9.80;3.30;;;;;;;10.99;64.33;100952.34;1845290;78;21053;-62
2022/05/05 02:25:50;;;;;;;7.42;2.60;;;;;;;10.96;64.63;100950.33;1844834;78;21045;-62
2022/05/05 02:28:17;;;;;;;9.78;3.22;;;;;;;10.91;64.66;100959.53;1845135;78;21073;-62
2022/05/05 02:30:45;;;;;;;9.98;3.08;;;;;;;10.85;64.86;100962.77;1844794;78;21018;-62
2022/05/05 02:33:12;;;;;;;7.62;2.80;;;;;;;10.91;64.96;100973.69;1844702;78;21022;-62
2022/05/05 02:35:40;;;;;;;6.12;2.83;;;;;;;10.90;65.06;100964.27;1844836;78;21021;-62
2022/05/05 02:40:53;;;;;;;3.83;2.60;;;;;;;10.99;65.19;100966.97;1844859;78;21014;-62
2022/05/05 02:43:23;;;;;;;5.62;2.60;;;;;;;10.94;65.55;100976.59;1845013;78;21509;-62
2022/05/05 02:45:50;;;;;;;5.17;2.45;;;;;;;10.76;66.02;100981.98;1844641;78;21014;-62
2022/05/05 02:48:17;;;;;;;8.65;3.08;;;;;;;10.77;66.31;100984.97;1844940;78;21065;-62
2022/05/05 02:50:44;;;;;;;6.87;2.95;;;;;;;10.94;66.25;100979.17;1844856;78;21038;-62
2022/05/05 02:56:00;;;;;;;3.92;2.35;;;;;;;10.89;66.40;100989.66;1845127;78;21018;-62
2022/05/05 02:58:28;;;;;;;6.92;2.80;;;;;;;11.04;66.05;100995.95;1844842;78;21061;-62
2022/05/05 03:00:56;;;;;;;6.17;2.52;;;;;;;11.01;66.42;100996.92;1845063;78;21084;-62
2022/05/05 03:03:24;;;;;;;4.50;2.40;;;;;;;10.94;66.59;101003.19;1844734;78;21010;-62
2022/05/05 03:05:52;;;;;;;5.28;2.62;;;;;;;10.89;66.74;101000.38;1845084;78;21014;-62
2022/05/05 03:08:20;;;;;;;7.62;2.42;;;;;;;11.04;66.94;101008.83;1844769;78;21557;-63
2022/05/05 03:10:48;;;;;;;3.90;2.50;;;;;;;11.12;66.80;101013.24;1844730;78;21049;-63
2022/05/05 03:13:15;;;;;;;10.68;3.30;;;;;;;11.07;66.74;101012.59;1845108;78;21057;-63
2022/05/05 03:15:44;;;;;;;6.03;2.67;;;;;;;11.04;66.59;101008.83;1844716;78;21010;-63
2022/05/05 03:18:11;;;;;;;6.55;2.70;;;;;;;11.09;67.02;101016.37;1844722;78;21030;-63
2022/05/05 03:20:40;;;;;;;8.20;2.80;;;;;;;11.08;67.28;101017.30;1844767;78;21010;-63
2022/05/05 03:23:07;;;;;;;8.05;2.90;;;;;;;11.08;67.24;101025.02;1844952;78;20996;-63
2022/05/05 03:25:35;;;;;;;9.50;3.27;;;;;;;11.07;67.89;101023.33;1844824;78;21018;-63
2022/05/05 03:28:02;;;;;;;6.95;2.67;;;;;;;11.15;68.00;101024.73;1844694;78;20991;-63
2022/05/05 03:30:30;;;;;;;4.92;2.40;;;;;;;11.13;68.05;101034.27;1845132;78;21080;-63
2022/05/05 03:32:57;;;;;;;5.80;2.50;;;;;;;11.08;67.91;101032.75;1844711;78;21014;-63
2022/05/05 03:35:25;;;;;;;5.05;2.58;;;;;;;11.20;68.07;101042.59;1845062;78;21018;-63
2022/05/05 03:37:52;;;;;;;8.40;2.67;;;;;;;11.17;67.99;101040.12;1844943;78;21021;-62
2022/05/05 03:40:19;;;;;;;5.65;2.50;;;;;;;11.16;67.85;101044.89;1844902;78;21037;-62
2022/05/05 03:42:47;;;;;;;7.65;2.92;;;;;;;11.30;67.91;101043.92;1844815;78;21525;-62
2022/05/05 03:45:14;;;;;;;7.15;2.80;;;;;;;11.35;67.82;101048.88;1844802;78;21045;-62
2022/05/05 03:47:41;;;;;;;5.45;2.70;;;;;;;11.42;67.82;101044.73;1844815;78;21002;-62
2022/05/05 03:50:10;;;;;;;7.35;2.95;;;;;;;11.42;67.73;101050.34;1844786;78;21049;-62
2022/05/05 03:52:37;;;;;;;8.25;2.50;;;;;;;11.49;67.85;101058.66;1845084;78;21061;-62
2022/05/05 03:55:05;;;;;;;4.33;2.30;;;;;;;11.61;67.74;101064.63;1845005;78;21560;-62
2022/05/05 03:57:33;;;;;;;5.47;2.45;;;;;;;11.53;67.74;101066.21;1845079;78;20986;-62
2022/05/05 04:00:00;;;;;;;8.10;2.50;;;;;;;11.46;67.52;101067.37;1844791;78;21060;-62
2022/05/05 04:02:27;;;;;;;5.35;2.62;;;;;;;11.90;67.44;101072.54;1844803;78;21007;-62
2022/05/05 04:04:54;;;;;;;6.30;2.42;;;;;;;11.89;67.42;101076.47;1845008;78;21057;-62
2022/05/05 04:07:24;;;;;;;7.12;2.40;;;;;;;11.88;67.87;101074.73;1844598;76;21085;-62
2022/05/05 04:09:53;;;;;;;7.12;2.50;;;;;;;11.97;67.51;101071.37;1841671;78;21006;-61
2022/05/05 04:12:20;;;;;;;5.92;2.25;;;;;;;11.88;67.93;101068.29;1829875;78;21034;-63
2022/05/05 04:14:48;;;;;;;5.47;2.40;;;;;;;11.94;68.41;101079.68;1830058;78;21007;-63
2022/05/05 04:17:16;;;;;;;5.00;2.47;;;;;;;12.03;68.47;101081.44;1830093;78;21022;-63
2022/05/05 04:19:43;;;;;;;8.65;3.10;;;;;;;12.08;68.38;101081.25;1829936;78;21526;-63
2022/05/05 04:22:11;;;;;;;4.30;2.40;;;;;;;11.99;68.57;101079.89;1829952;78;21026;-63
2022/05/05 04:24:38;;;;;;;5.58;2.50;;;;;;;12.16;68.65;101080.94;1830042;78;21484;-63
2022/05/05 04:27:06;;;;;;;7.53;2.40;;;;;;;12.09;69.34;101085.52;1830043;78;21018;-63
2022/05/05 04:29:33;;;;;;;3.95;2.58;;;;;;;11.94;69.46;101086.13;1829872;78;21018;-63
2022/05/05 04:32:01;;;;;;;4.42;2.25;;;;;;;12.08;68.74;101091.56;1830301;78;21455;-62
2022/05/05 04:34:28;;;;;;;6.55;2.60;;;;;;;12.18;69.71;101085.13;1829869;78;20987;-63
2022/05/05 04:36:55;;;;;;;4.85;2.27;;;;;;;12.31;69.41;101101.42;1829861;78;21494;-62
2022/05/05 04:39:22;;;;;;;7.42;2.33;;;;;;;12.18;69.49;101098.48;1829957;78;21022;-62
2022/05/05 04:41:49;;;;;;;7.22;2.72;;;;;;;12.27;69.11;101098.58;1829903;78;21034;-62
2022/05/05 04:44:16;;;;;;;8.55;2.12;;;;;;;12.37;69.57;101104.58;1830297;78;21038;-63
2022/05/05 04:46:44;;;;;;;6.45;2.52;;;;;;;12.46;69.33;101107.67;1830318;78;21649;-63
2022/05/05 04:49:11;;;;;;;6.55;2.27;;;;;;;12.37;68.72;101111.03;1830019;78;21486;-63
2022/05/05 04:51:38;;;;;;;5.08;2.25;;;;;;;12.50;69.28;101111.34;1830221;78;20987;-63
2022/05/05 04:54:06;;;;;;;6.45;2.20;;;;;;;12.64;69.43;101119.80;1829906;78;21116;-63
2022/05/05 04:56:33;;;;;;;6.67;2.35;;;;;;;12.41;68.95;101122.91;1830196;78;20990;-62
2022/05/05 04:59:00;;;;;;;5.08;2.37;;;;;;;12.68;69.18;101129.09;1829920;78;21034;-63
2022/05/05 05:01:28;;;;;;;6.80;2.30;;;;;;;12.77;69.32;101140.34;1829922;78;21018;-62
2022/05/05 05:03:55;;;;;;;8.88;2.40;;;;;;;12.69;68.80;101144.12;1830503;78;21026;-63
2022/05/05 05:06:22;;;;;;;7.85;2.35;;;;;;;12.80;69.23;101140.19;1829897;78;21011;-63
2022/05/05 05:08:50;;;;;;;5.37;2.35;;;;;;;12.58;68.95;101142.84;1829891;78;21074;-62
2022/05/05 05:11:17;;;;;;;4.92;2.25;;;;;;;12.85;69.55;101147.73;1830673;78;21030;-62
2022/05/05 05:13:44;;;;;;;4.85;2.60;;;;;;;12.74;68.39;101148.66;1831051;78;21037;-63
2022/05/05 05:16:11;;;;;;;8.93;1.92;;;;;;;12.61;68.84;101159.95;1831304;78;21066;-62
2022/05/05 05:18:39;;;;;;;5.47;2.10;;;;;;;12.72;68.77;101159.52;1831083;78;21022;-63
2022/05/05 05:21:06;;;;;;;4.45;2.47;;;;;;;12.67;68.92;101161.44;1831056;78;20979;-62
2022/05/05 05:23:33;;;;;;;6.17;2.42;;;;;;;12.94;68.52;101159.44;1831080;78;21010;-62
2022/05/05 05:26:01;;;;;;;7.17;2.20;;;;;;;13.01;68.66;101162.95;1830949;78;21495;-63
2022/05/05 05:28:28;;;;;;;7.87;2.50;;;;;;;12.94;68.38;101169.77;1830236;78;21035;-63
2022/05/05 05:30:55;;;;;;;8.20;2.52;;;;;;;13.07;68.74;101177.36;1822768;78;21523;-63
2022/05/05 05:33:23;;;;;;;8.15;2.30;;;;;;;13.03;68.49;101171.47;1821811;78;20971;-62
2022/05/05 05:35:51;;;;;;;3.87;2.17;;;;;;;12.92;68.30;101175.00;1829954;78;20995;-63
2022/05/05 05:38:20;;;;;;;10.45;2.17;;;;;;;13.04;67.60;101195.59;1825925;78;21014;-63
2022/05/05 05:40:47;;;;;;;7.87;2.30;;;;;;;13.19;67.49;101207.00;1822297;78;20952;-63
2022/05/05 05:43:15;;;;;;;3.80;2.17;;;;;;;13.26;68.04;101199.37;1825750;78;21483;-63
2022/05/05 05:45:43;;;;;;;5.90;2.25;;;;;;;13.15;67.19;101202.42;1818951;78;21011;-63
2022/05/05 05:48:10;;;;;;;5.25;2.12;;;;;;;13.02;67.49;101202.12;1820753;78;20999;-64
2022/05/05 05:50:38;;;;;;;8.65;2.67;;;;;;;13.00;66.69;101208.27;1826328;78;20987;-63
2022/05/05 05:53:06;;;;;;;8.03;2.25;;;;;;;13.15;66.84;101209.34;1825905;78;20983;-63
2022/05/05 05:55:36;;;;;;;5.17;2.15;;;;;;;13.23;67.66;101204.67;1826031;78;21019;-62
2022/05/05 05:58:03;;;;;;;6.05;2.58;;;;;;;13.51;67.28;101209.95;1822926;78;20960;-63
2022/05/05 06:00:32;;;;;;;9.25;2.33;;;;;;;13.55;67.33;101210.20;1825137;78;21012;-63
2022/05/05 06:05:47;;;;;;;7.90;2.60;;;;;;;13.31;66.48;101218.59;1828321;78;21461;-62
2022/05/05 06:08:15;;;;;;;8.98;2.33;;;;;;;13.39;66.63;101222.51;1826586;78;21070;-62
2022/05/05 06:10:42;;;;;;;6.53;2.00;;;;;;;13.53;67.37;101224.95;1823571;78;21028;-63
2022/05/05 06:13:09;;;;;;;6.62;2.27;;;;;;;13.58;66.51;101228.15;1840303;78;20999;-63
2022/05/05 06:15:37;;;;;;;5.47;2.10;;;;;;;13.65;65.82;101232.61;1840002;78;21507;-63
2022/05/05 06:18:06;;;;;;;5.00;2.30;;;;;;;14.02;65.92;101227.86;1841314;78;21014;-62
2022/05/05 06:20:33;;;;;;;8.08;2.15;;;;;;;13.71;65.17;101240.09;1835860;78;21002;-63
2022/05/05 06:23:01;;;;;;;9.08;2.27;;;;;;;14.00;66.06;101245.21;1835195;78;21090;-64
2022/05/05 06:25:28;;;;;;;3.90;1.90;;;;;;;14.18;65.77;101248.23;1836760;78;21021;-62
2022/05/05 06:27:58;;;;;;;9.75;2.12;;;;;;;13.94;65.37;101250.67;1840880;78;21037;-63
2022/05/05 06:30:25;;;;;;;8.73;2.40;;;;;;;13.93;64.71;101265.80;1839817;77;20986;-63
2022/05/05 06:32:52;;;;;;;5.45;2.25;;;;;;;14.19;64.14;101263.30;1841186;78;21454;-62
2022/05/05 06:35:20;;;;;;;9.78;2.35;;;;;;;14.15;63.44;101266.95;1836111;78;21484;-63
2022/05/05 06:37:50;;;;;;;4.20;2.00;;;;;;;14.16;63.86;101265.59;1836994;78;21033;-63
2022/05/05 06:40:16;;;;;;;4.30;2.10;;;;;;;14.28;63.93;101264.64;1840055;78;20998;-63
2022/05/05 06:42:44;;;;;;;9.40;1.98;;;;;;;14.30;63.86;101270.13;1841283;78;21514;-63
2022/05/05 06:45:11;;;;;;;6.53;2.22;;;;;;;14.56;63.14;101275.84;1844761;78;21007;-63
2022/05/05 06:47:39;;;;;;;6.70;2.33;;;;;;;14.58;62.50;101280.50;1845029;78;21037;-63
2022/05/05 06:50:07;;;;;;;5.25;2.27;;;;;;;14.77;63.28;101281.72;1836600;78;21368;-62
2022/05/05 06:52:34;;;;;;;10.15;2.42;;;;;;;14.43;61.58;101286.73;1840865;78;21037;-62
2022/05/05 06:55:04;;;;;;;7.58;2.42;;;;;;;14.62;62.10;101298.41;1831265;77;20960;-63
2022/05/05 06:57:32;;;;;;;8.43;2.15;;;;;;;14.50;60.83;101286.47;1833859;78;20984;-63
2022/05/05 06:59:59;;;;;;;5.17;2.27;;;;;;;14.46;59.89;101282.35;1834907;78;20987;-63
2022/05/05 07:02:26;;;;;;;8.23;2.55;;;;;;;14.62;59.65;101289.33;1835033;78;21023;-63
2022/05/05 07:07:40;;;;;;;7.12;2.25;;;;;;;15.00;59.39;101276.67;1834254;78;21049;-63
2022/05/05 07:12:55;;;;;;;5.85;2.15;;;;;;;14.89;58.01;101284.17;1837475;78;21014;-63
2022/05/05 07:15:22;;;;;;;6.17;1.90;;;;;;;15.01;56.89;101291.33;1836159;78;20995;-63
2022/05/05 07:17:51;;;;;;;6.47;2.08;;;;;;;15.06;57.02;101282.02;1835157;78;21019;-63
2022/05/05 07:20:19;;;;;;;8.80;1.70;;;;;;;14.93;55.40;101288.28;1844951;78;20978;-64
2022/05/05 07:22:46;;;;;;;6.90;1.90;;;;;;;15.33;56.77;101281.09;1827476;78;20951;-63
2022/05/05 07:25:23;;;;;;;4.37;1.67;;;;;;;15.13;55.29;101297.20;1835168;78;21011;-63
2022/05/05 07:27:50;;;;;;;5.22;1.98;;;;;;;15.32;55.63;101284.11;1840192;78;21043;-63
2022/05/05 07:30:17;;;;;;;9.43;1.80;;;;;;;15.31;53.90;101296.72;1840422;78;21017;-64
2022/05/05 07:32:45;;;;;;;5.25;1.90;;;;;;;15.49;54.17;101315.70;1836817;78;21004;-63
2022/05/05 07:35:12;;;;;;;7.20;1.90;;;;;;;15.29;54.16;101297.26;1845182;78;21010;-64
2022/05/05 07:37:39;;;;;;;6.22;2.00;;;;;;;15.59;53.70;101306.52;1840562;78;21034;-64
2022/05/05 07:40:08;;;;;;;9.88;1.80;;;;;;;15.88;54.96;101298.96;1840722;78;21031;-64
2022/05/05 07:42:37;;;;;;;3.52;1.82;;;;;;;15.80;54.73;101309.75;1845130;78;20962;-64
2022/05/05 07:45:05;;;;;;;5.83;1.80;;;;;;;16.14;54.34;101298.85;1840322;77;20992;-63
2022/05/05 07:47:33;;;;;;;6.15;1.77;;;;;;;16.23;52.83;101305.29;1816688;78;20984;-63
2022/05/05 07:50:02;;;;;;;7.10;1.55;;;;;;;15.98;50.90;101302.73;1812142;79;22162;-63
2022/05/05 07:52:29;;;;;;;4.55;1.37;;;;;;;16.07;51.60;101305.29;1812368;79;21479;-62
2022/05/05 07:54:57;;;;;;;4.67;1.85;;;;;;;15.90;50.72;101306.20;1811909;79;21035;-63
2022/05/05 07:57:24;;;;;;;5.85;1.50;;;;;;;16.11;51.95;101311.98;1812252;79;21042;-63
2022/05/05 07:59:52;;;;;;;2.87;1.65;;;;;;;16.41;51.04;101313.83;1812300;79;21578;-63
2022/05/05 08:02:20;;;;;;;5.08;1.77;;;;;;;16.29;49.07;101323.61;1811755;79;21586;-63
2022/05/05 08:04:48;;;;;;;8.30;1.70;;;;;;;16.23;49.22;101324.77;1833732;77;20966;-63
2022/05/05 08:07:15;;;;;;;5.10;1.60;;;;;;;16.53;49.31;101310.55;1835732;78;21057;-63
2022/05/05 08:09:42;;;;;;;4.08;1.50;;;;;;;16.56;48.29;101317.33;1834683;78;21535;-64
2022/05/05 08:12:11;;;;;;;6.10;2.30;;;;;;;16.61;49.23;101303.63;1812584;78;21054;-63
2022/05/05 08:14:38;;;;;;;10.60;1.85;;;;;;;16.67;47.41;101318.03;1814284;79;22174;-63
2022/05/05 08:17:05;;;;;;;6.37;1.60;;;;;;;16.97;47.95;101310.24;1814099;78;21003;-63
2022/05/05 08:19:32;;;;;;;5.37;1.50;;;;;;;16.95;46.46;101316.86;1814185;78;21050;-63
2022/05/05 08:21:59;;;;;;;8.03;1.70;;;;;;;16.74;46.44;101314.98;1840211;76;22178;-63
2022/05/05 08:30:05;;;;;;;9.65;1.90;;;;;;;17.16;46.17;101316.05;1850243;76;20998;-63
2022/05/05 08:32:33;;;;;;;6.45;1.77;;;;;;;17.35;46.92;101323.59;1839300;76;20975;-63
2022/05/05 08:35:01;;;;;;;3.15;1.50;;;;;;;16.97;46.48;101321.51;1859770;76;21037;-63
2022/05/05 08:37:28;;;;;;;4.15;1.70;;;;;;;16.72;46.35;101329.00;1860398;76;20960;-63
2022/05/05 08:39:56;;;;;;;6.37;1.60;;;;;;;16.93;47.94;101310.91;1858837;76;20991;-63
2022/05/05 08:42:24;;;;;;;5.65;1.82;;;;;;;16.81;47.04;101328.52;1855951;76;21460;-63
2022/05/05 08:44:52;;;;;;;2.40;1.32;;;;;;;17.00;46.11;101334.31;1846693;78;21070;-63
2022/05/05 08:47:23;;;;;;;7.37;1.87;;;;;;;17.11;45.92;101332.85;1846820;77;21492;-63
2022/05/05 08:49:55;;;;;;;4.42;1.50;;;;;;;17.05;45.87;101324.94;1847211;77;20991;-63
2022/05/05 08:52:50;;;;;;;3.98;1.60;;;;;;;17.19;46.05;101322.39;1846812;77;21082;-63
2022/05/05 08:55:20;;;;;;;3.80;1.60;;;;;;;16.78;45.09;101319.08;1846978;78;21065;-63
2022/05/05 08:57:48;;;;;;;9.85;1.85;;;;;;;17.12;45.61;101318.94;1847094;77;21499;-63
2022/05/05 09:00:17;;;;;;;3.87;1.52;;;;;;;17.09;45.02;101320.40;1847031;77;21046;-63
2022/05/05 09:02:44;;;;;;;3.42;2.00;;;;;;;17.32;45.30;101322.50;1847167;77;20987;-62
2022/05/05 09:05:13;;;;;;;6.35;2.00;;;;;;;17.42;44.76;101326.22;1846811;78;21016;-62
2022/05/05 09:07:49;;;;;;;4.65;1.57;;;;;;;17.22;45.27;101323.97;1846891;77;21071;-62
2022/05/05 09:10:21;;;;;;;3.50;1.47;;;;;;;17.10;44.13;101325.52;1846956;78;21070;-62
2022/05/05 09:13:00;;;;;;;5.45;1.50;;;;;;;16.80;44.66;101332.00;1833912;77;21020;-63
2022/05/05 09:15:35;;;;;;;5.53;1.50;;;;;;;16.96;46.24;101325.02;1831429;78;21000;-62
2022/05/05 09:18:18;;;;;;;3.75;1.65;;;;;;;17.05;45.02;101323.64;1831607;78;20956;-62
2022/05/05 09:20:48;;;;;;;6.92;1.60;;;;;;;16.97;45.24;101327.15;1831102;78;21027;-62
2022/05/05 09:24:34;;;;;;;7.40;1.50;;;;;;;16.89;45.94;101330.22;1831456;78;21023;-62
2022/05/05 09:26:10;;;;;;;3.20;1.50;;;;;;;17.29;45.36;101337.45;1827411;78;21043;-62
2022/05/05 09:28:37;;;;;;;4.15;1.50;;;;;;;17.61;45.98;101336.83;1831939;78;21425;-63
2022/05/05 09:31:10;;;;;;;5.22;1.80;;;;;;;17.45;44.82;101335.60;1831446;78;21016;-63
2022/05/05 09:33:41;;;;;;;3.60;1.45;;;;;;;17.56;44.23;101348.00;1831839;78;20980;-62
2022/05/05 09:36:16;;;;;;;4.55;2.00;;;;;;;17.40;43.62;101345.00;1831440;78;20996;-62
2022/05/05 09:38:59;;;;;;;5.92;1.72;;;;;;;17.43;44.05;101356.98;1831354;78;21496;-62
2022/05/05 09:41:32;;;;;;;6.47;1.60;;;;;;;17.82;44.55;101352.91;1831882;78;21472;-62
2022/05/05 09:44:20;;;;;;;4.45;1.82;;;;;;;17.62;44.09;101357.57;1831497;78;21015;-63
2022/05/05 09:46:48;;;;;;;11.53;1.95;;;;;;;17.67;43.01;101354.68;1831792;78;21019;-62
2022/05/05 09:57:44;;;;;;;3.15;1.60;;;;;;;17.92;42.86;101372.75;1795222;79;21037;-63
2022/05/05 10:01:04;;;;;;;4.78;1.60;;;;;;;18.06;43.25;101351.06;1779042;79;21001;-62
2022/05/05 10:05:30;;;;;;;3.58;1.57;;;;;;;17.65;42.05;101359.62;1779173;81;21044;-63
2022/05/05 10:07:57;;;;;;;6.80;1.60;;;;;;;17.44;42.80;101349.56;1779184;81;21564;-62
2022/05/05 10:10:25;;;;;;;6.47;1.80;;;;;;;17.80;42.30;101359.97;1779112;80;21009;-62
2022/05/05 10:12:57;;;;;;;4.00;1.50;;;;;;;17.58;42.26;101359.16;1816666;78;21462;-63
2022/05/05 10:15:25;;;;;;;5.00;1.62;;;;;;;17.58;41.71;101366.50;1829553;78;21000;-64
2022/05/05 10:17:53;;;;;;;7.45;2.17;;;;;;;17.75;42.09;101378.48;1829203;78;21032;-64
2022/05/05 10:20:20;;;;;;;6.45;2.00;;;;;;;17.54;41.57;101379.32;1828799;78;21562;-64
2022/05/05 10:23:04;;;;;;;4.37;1.67;;;;;;;18.07;42.90;101356.66;1828645;77;20953;-64
2022/05/05 10:25:35;;;;;;;5.62;1.75;;;;;;;18.23;41.24;101369.09;1780985;80;21003;-64
2022/05/05 10:28:02;;;;;;;5.25;1.70;;;;;;;18.19;41.43;101363.23;1782924;79;21046;-63
2022/05/05 10:30:36;;;;;;;5.75;1.70;;;;;;;18.34;41.60;101370.55;1782101;80;21042;-64
2022/05/05 10:33:08;;;;;;;4.72;1.57;;;;;;;18.05;41.20;101382.80;1763979;80;28533;-63
2022/05/05 10:35:48;;;;;;;4.72;1.60;;;;;;;18.03;41.26;101359.91;1786547;80;20994;-65
2022/05/05 10:38:40;;;;;;;5.03;1.65;;;;;;;17.98;41.06;101367.16;1782389;80;20995;-61
2022/05/05 10:41:39;;;;;;;3.90;1.50;;;;;;;18.00;40.45;101388.30;1780586;80;21060;-62
2022/05/05 10:44:26;;;;;;;4.33;1.98;;;;;;;18.12;41.09;101378.87;1834704;77;20979;-62
2022/05/05 10:46:59;;;;;;;;;;;;;;;17.91;39.58;101373.22;1826669;78;21027;-63
2022/05/05 10:49:42;;;;;;;2.92;1.50;;;;;;;18.37;40.63;101373.42;1814314;78;20122;-64
2022/05/05 10:52:14;;;;;;;5.60;1.95;;;;;;;17.91;39.96;101372.39;1810584;79;21037;-62
2022/05/05 10:54:47;;;;;;;3.47;1.57;;;;;;;18.07;40.08;101376.20;1797003;78;21066;-63
2022/05/05 10:57:32;;;;;;;2.75;1.70;;;;;;;18.01;40.19;101373.03;1815059;78;20986;-64
2022/05/05 11:00:13;;;;;;;5.00;1.62;;;;;;;18.16;40.28;101362.11;1811462;79;20998;-62
2022/05/05 11:03:10;;;;;;;3.80;1.52;;;;;;;18.47;41.36;101368.02;1820642;78;20981;-63
2022/05/05 11:05:41;;;;;;;2.55;1.65;;;;;;;18.27;39.23;101381.45;1820930;78;21021;-62
2022/05/05 11:08:20;;;;;;;4.58;1.70;;;;;;;18.28;39.14;101372.23;1821719;78;21076;-63
2022/05/05 11:23:12;;;;;;;2.80;1.50;;;;;;;18.34;39.55;101380.97;1811124;79;21080;-62
2022/05/05 11:25:42;;;;;;;2.60;1.70;;;;;;;18.48;38.65;101372.28;1812165;79;21505;-63
2022/05/05 11:28:09;;;;;;;2.75;1.50;;;;;;;18.59;39.30;101374.20;1811925;79;21073;-63
2022/05/05 11:30:40;;;;;;;6.35;1.80;;;;;;;18.41;39.07;101380.14;1812247;79;21022;-64
2022/05/05 11:33:07;;;;;;;4.25;1.60;;;;;;;18.36;39.33;101382.19;1780708;79;21505;-63
2022/05/05 11:35:34;;;;;;;4.90;1.70;;;;;;;18.42;39.11;101372.67;1811875;79;21084;-62
2022/05/05 11:38:03;;;;;;;4.17;1.67;;;;;;;18.45;39.07;101379.45;1812072;79;21923;-64
2022/05/05 11:40:37;;;;;;;3.55;1.50;;;;;;;18.81;40.04;101380.20;1812138;78;21041;-63
2022/05/05 11:45:55;;;;;;;5.40;1.82;;;;;;;18.82;39.02;101376.68;1811887;79;21554;-62
2022/05/05 11:48:22;;;;;;;4.12;1.60;;;;;;;18.87;38.32;101370.67;1812202;79;21005;-63
2022/05/05 11:50:49;;;;;;;6.08;1.70;;;;;;;19.10;37.14;101374.84;1811967;79;21053;-62
2022/05/05 11:53:18;;;;;;;3.10;1.40;;;;;;;19.09;38.30;101374.02;1812035;79;21053;-64
2022/05/05 11:55:45;;;;;;;4.95;1.98;;;;;;;19.54;37.59;101379.70;1811861;79;21033;-63
2022/05/05 12:01:36;;;;;;;5.97;1.85;;;;;;;19.06;36.98;101377.30;1811963;79;21029;-63
2022/05/05 12:03:32;;;;;;;4.70;1.92;;;;;;;19.12;36.32;101376.88;1811775;79;21096;-63
2022/05/05 12:06:00;;;;;;;3.33;1.77;;;;;;;19.65;35.58;101376.37;1811943;79;21097;-63
2022/05/05 12:08:28;;;;;;;2.98;1.60;;;;;;;19.56;35.85;101379.12;1811674;79;21057;-63
2022/05/05 12:10:55;;;;;;;6.80;1.50;;;;;;;19.74;35.92;101397.13;1812039;79;21454;-63
2022/05/05 12:13:23;;;;;;;4.00;1.77;;;;;;;19.91;35.84;101371.98;1811844;79;21514;-63
2022/05/05 12:15:51;;;;;;;10.78;2.12;;;;;;;20.00;35.39;101387.49;1811810;79;21537;-63
2022/05/05 12:18:19;;;;;;;2.33;1.57;;;;;;;19.86;35.38;101374.55;1811925;79;21056;-63
2022/05/05 12:20:46;;;;;;;4.37;2.10;;;;;;;20.14;35.46;101369.05;1811986;79;21506;-63
2022/05/05 12:23:15;;;;;;;5.37;1.77;;;;;;;19.77;35.05;101373.42;1811899;79;21065;-63
2022/05/05 12:25:45;;;;;;;7.25;1.92;;;;;;;20.21;34.08;101369.00;1811779;79;21034;-63
2022/05/05 12:28:13;;;;;;;4.22;1.72;;;;;;;20.16;33.75;101381.55;1816186;78;20978;-63
2022/05/05 12:30:43;;;;;;;2.35;1.55;;;;;;;19.96;34.14;101368.56;1821769;78;21366;-64